Wilberton, Illinois
Current Conditions -  °F | °C
As of 7:55 AM on Monday 24 Nov 2014 (Local Time) from KENL Reporting Station
Overcast Overcast  
Wind Chill: 31°   Ceiling: 2100
Heat Index: 39°   Visibility: 10mi
Dew Point: 34°   Wind: 15mph
Humidity: 81%   Direction: 240°WSW
Pressure: 29.55"   Gusts: 23mph
Location:  38.8463°N, 89.0894°W
Report Text: KENL 241355Z AUTO 24013G20KT 10SM OVC021 04/01 A2955 RMK AO2 T00400010
Loading
Personal Weather Stations






























Interactive Weather Map New forecast layout! Learn more

10-Day Weather Forecast

Advertisements
Track Severe Weather on mobile